Time;durP1;ratioP1;P1;durP2;ratioP2;P2;SDS_P1;SDS_P2;PMS_P1;PMS_P2;Temp;Humidity;BMP_temperature;BMP_pressure;BME280_temperature;BME280_humidity;BME280_pressure;Samples;Min_cycle;Max_cycle;Signal;HPM_P1;HPM_P2
2021/12/01 00:00:23;;;;;;;79.53;24.30;;;8.60;99.90;;;;;;4843198;29;20073;-77
2021/12/01 00:02:53;;;;;;;64.93;22.08;;;8.60;99.90;;;;;;4841430;29;20530;-77
2021/12/01 00:05:20;;;;;;;72.35;24.77;;;8.60;99.90;;;;;;4812140;29;20052;-77
2021/12/01 00:07:47;;;;;;;71.47;25.80;;;8.60;99.90;;;;;;4826982;29;20041;-77
2021/12/01 00:10:13;;;;;;;69.90;26.33;;;8.60;99.90;;;;;;4826481;29;20041;-77
2021/12/01 00:12:39;;;;;;;70.57;26.85;;;8.60;99.90;;;;;;4841540;29;20412;-77
2021/12/01 00:15:06;;;;;;;73.97;27.53;;;8.60;99.90;;;;;;4842069;29;20102;-77
2021/12/01 00:17:32;;;;;;;74.18;26.75;;;8.60;99.90;;;;;;4827011;29;20108;-78
2021/12/01 00:19:59;;;;;;;77.97;27.20;;;8.60;99.90;;;;;;4838547;29;20041;-78
2021/12/01 00:22:26;;;;;;;65.38;25.27;;;8.60;99.90;;;;;;4826612;29;20157;-78
2021/12/01 00:24:52;;;;;;;65.60;24.45;;;8.60;99.90;;;;;;4842694;29;20052;-79
2021/12/01 00:27:18;;;;;;;62.17;23.13;;;8.60;99.90;;;;;;4813281;29;20490;-77
2021/12/01 00:29:43;;;;;;;66.17;24.17;;;8.60;99.90;;;;;;4816788;29;20420;-77
2021/12/01 00:32:09;;;;;;;49.77;21.87;;;8.60;99.90;;;;;;4810096;29;20209;-77
2021/12/01 00:34:35;;;;;;;59.60;21.63;;;8.60;99.90;;;;;;4825507;29;20244;-77
2021/12/01 00:37:01;;;;;;;51.83;20.37;;;8.60;99.90;;;;;;4810998;29;20053;-77
2021/12/01 00:39:27;;;;;;;53.10;19.73;;;8.60;99.90;;;;;;4826038;29;20056;-78
2021/12/01 00:41:55;;;;;;;48.27;20.47;;;8.60;99.90;;;;;;4826150;29;20080;-77
2021/12/01 00:44:20;;;;;;;47.00;18.70;;;8.60;99.90;;;;;;4831359;29;20128;-77
2021/12/01 00:46:55;;;;;;;40.70;18.60;;;8.60;99.90;;;;;;4825879;29;20136;-77
2021/12/01 00:49:21;;;;;;;40.65;15.98;;;8.60;99.90;;;;;;4811706;29;20075;-77
2021/12/01 00:51:47;;;;;;;38.63;16.80;;;8.50;99.90;;;;;;4825353;29;20069;-77
2021/12/01 00:54:13;;;;;;;37.58;16.30;;;8.50;99.90;;;;;;4821658;29;20539;-77
2021/12/01 00:56:39;;;;;;;41.77;15.90;;;8.50;99.90;;;;;;4840975;29;20080;-77
2021/12/01 00:59:06;;;;;;;41.65;15.05;;;8.50;99.90;;;;;;4825692;29;20071;-77
2021/12/01 01:01:32;;;;;;;37.25;13.80;;;8.50;99.90;;;;;;4840758;29;20567;-77
2021/12/01 01:03:57;;;;;;;33.45;13.23;;;8.50;99.90;;;;;;4810387;29;20050;-77
2021/12/01 01:06:23;;;;;;;34.43;12.93;;;8.50;99.90;;;;;;4825348;29;20362;-77
2021/12/01 01:08:49;;;;;;;31.27;12.50;;;8.50;99.90;;;;;;4841118;29;20453;-77
2021/12/01 01:16:45;;;;;;;22.90;10.18;;;8.50;99.90;;;;;;4840661;29;20529;-77
2021/12/01 01:19:13;;;;;;;28.48;10.20;;;8.50;99.90;;;;;;4841080;29;20458;-77
2021/12/01 01:21:43;;;;;;;26.80;9.50;;;8.60;99.90;;;;;;4825488;29;20050;-77
2021/12/01 01:24:10;;;;;;;23.67;8.38;;;8.50;99.90;;;;;;4825235;29;20373;-78
2021/12/01 01:26:36;;;;;;;24.80;8.75;;;8.50;99.90;;;;;;4821452;29;20053;-77
2021/12/01 01:29:04;;;;;;;23.60;8.40;;;8.60;99.90;;;;;;4834591;29;20049;-77
2021/12/01 01:31:30;;;;;;;31.17;8.63;;;8.60;99.90;;;;;;4824977;29;20048;-77
2021/12/01 01:33:57;;;;;;;19.17;7.13;;;8.60;99.90;;;;;;4838982;29;20053;-77
2021/12/01 01:36:23;;;;;;;21.00;6.57;;;8.60;99.90;;;;;;4824924;29;20136;-77
2021/12/01 01:38:50;;;;;;;24.05;6.47;;;8.60;99.90;;;;;;4825363;29;20579;-77
2021/12/01 01:41:16;;;;;;;26.58;5.93;;;8.60;99.90;;;;;;4839826;29;20473;-77
2021/12/01 01:43:45;;;;;;;16.92;5.50;;;8.60;99.90;;;;;;4839395;29;20084;-77
2021/12/01 01:46:12;;;;;;;20.73;5.50;;;8.60;99.90;;;;;;4831715;29;20202;-78
2021/12/01 01:51:33;;;;;;;18.92;4.25;;;8.70;99.90;;;;;;4824494;29;20060;-77
2021/12/01 01:53:59;;;;;;;25.80;5.35;;;8.60;99.90;;;;;;4808627;29;20037;-77
2021/12/01 01:56:26;;;;;;;16.30;4.00;;;8.70;99.90;;;;;;4822969;29;20048;-77
2021/12/01 01:58:52;;;;;;;16.17;4.70;;;8.70;99.90;;;;;;4838544;29;20069;-77
2021/12/01 02:01:44;;;;;;;20.20;5.18;;;8.70;99.90;;;;;;4823368;29;20506;-77
2021/12/01 02:04:11;;;;;;;18.27;5.10;;;8.70;99.90;;;;;;4828822;29;20084;-77
2021/12/01 02:06:36;;;;;;;20.15;4.15;;;8.70;99.90;;;;;;4840522;29;20086;-78
2021/12/01 02:09:04;;;;;;;15.17;3.90;;;8.60;99.90;;;;;;4840859;29;20042;-77
2021/12/01 02:11:30;;;;;;;12.73;3.58;;;8.60;99.90;;;;;;4832687;29;20047;-77
2021/12/01 02:13:57;;;;;;;16.07;3.53;;;8.60;99.90;;;;;;4825363;29;20046;-78
2021/12/01 02:16:22;;;;;;;13.88;2.75;;;8.60;99.90;;;;;;4810239;29;20206;-78
2021/12/01 02:18:49;;;;;;;14.77;2.60;;;8.60;99.90;;;;;;4810561;29;20163;-77
2021/12/01 02:21:18;;;;;;;12.90;2.67;;;8.70;99.90;;;;;;4824283;29;20053;-77
2021/12/01 02:23:49;;;;;;;16.27;3.08;;;8.80;99.90;;;;;;4847554;29;20041;-77
2021/12/01 02:26:20;;;;;;;13.43;2.58;;;8.90;99.90;;;;;;4824733;29;20041;-77
2021/12/01 02:28:48;;;;;;;17.02;3.35;;;8.90;99.90;;;;;;4824548;29;20520;-79
2021/12/01 02:31:14;;;;;;;18.70;2.17;;;9.00;99.90;;;;;;4827045;29;20055;-77
2021/12/01 02:33:40;;;;;;;11.25;1.70;;;9.00;99.90;;;;;;4823309;29;20041;-77
2021/12/01 02:36:11;;;;;;;21.07;2.17;;;9.00;99.90;;;;;;4838963;29;20047;-77
2021/12/01 02:38:40;;;;;;;18.98;2.22;;;9.00;99.90;;;;;;4824366;29;20073;-77
2021/12/01 02:41:07;;;;;;;17.88;2.13;;;9.10;99.90;;;;;;4817097;29;20370;-77
2021/12/01 02:43:34;;;;;;;15.25;2.25;;;9.10;99.90;;;;;;4843346;29;20045;-77
2021/12/01 02:46:00;;;;;;;17.50;1.95;;;9.10;99.90;;;;;;4824531;29;20045;-77
2021/12/01 02:48:26;;;;;;;17.53;2.07;;;9.10;99.90;;;;;;4839504;29;20046;-78
2021/12/01 02:50:54;;;;;;;14.25;2.40;;;9.10;99.90;;;;;;4810806;29;20072;-78
2021/12/01 02:53:23;;;;;;;19.33;2.30;;;9.10;99.90;;;;;;4809893;29;20429;-78
2021/12/01 02:55:54;;;;;;;16.67;2.83;;;9.10;99.90;;;;;;4840088;29;20061;-77
2021/12/01 02:58:21;;;;;;;15.77;2.15;;;9.20;99.90;;;;;;4836900;29;20053;-77
2021/12/01 03:00:48;;;;;;;17.25;2.63;;;9.20;99.90;;;;;;4824389;29;20049;-78
2021/12/01 03:03:14;;;;;;;20.95;2.30;;;9.30;99.90;;;;;;4825285;29;20516;-78
2021/12/01 03:05:42;;;;;;;15.93;2.20;;;9.30;99.90;;;;;;4826319;29;20045;-78
2021/12/01 03:08:08;;;;;;;31.35;2.95;;;9.30;99.90;;;;;;4839810;29;20117;-77
2021/12/01 03:10:34;;;;;;;20.15;2.25;;;9.30;99.90;;;;;;4825952;29;20049;-78
2021/12/01 03:13:00;;;;;;;18.90;2.77;;;9.30;99.90;;;;;;4823157;29;20045;-77
2021/12/01 03:15:26;;;;;;;24.87;2.50;;;9.30;99.90;;;;;;4825127;29;20080;-77
2021/12/01 03:17:52;;;;;;;22.80;3.07;;;9.30;99.90;;;;;;4822401;29;20045;-78
2021/12/01 03:20:20;;;;;;;19.90;2.93;;;9.30;99.90;;;;;;4824252;29;20041;-78
2021/12/01 03:22:47;;;;;;;21.30;3.95;;;9.20;99.90;;;;;;4812260;29;20497;-78
2021/12/01 03:25:14;;;;;;;21.55;2.88;;;9.20;99.90;;;;;;4853510;29;20390;-78
2021/12/01 03:27:41;;;;;;;26.60;2.95;;;9.20;99.90;;;;;;4829176;29;20049;-78
2021/12/01 03:30:11;;;;;;;26.85;3.20;;;9.20;99.90;;;;;;4845936;29;20045;-78
2021/12/01 03:32:38;;;;;;;24.60;3.58;;;9.30;99.90;;;;;;4838691;29;20041;-78
2021/12/01 03:35:11;;;;;;;23.73;3.30;;;9.30;99.90;;;;;;4840913;29;20108;-78
2021/12/01 03:37:38;;;;;;;26.50;3.35;;;9.30;99.90;;;;;;4840590;29;20580;-78
2021/12/01 03:40:05;;;;;;;22.27;3.42;;;9.20;99.90;;;;;;4811980;29;20057;-78
2021/12/01 03:42:31;;;;;;;27.58;3.83;;;9.20;99.90;;;;;;4827613;29;20417;-78
2021/12/01 03:44:57;;;;;;;26.10;3.33;;;9.20;99.90;;;;;;4812435;29;20046;-78
2021/12/01 03:47:25;;;;;;;22.40;3.30;;;9.20;99.90;;;;;;4826712;29;20050;-78
2021/12/01 03:49:51;;;;;;;24.23;3.45;;;9.20;99.90;;;;;;4837797;29;20048;-78
2021/12/01 03:52:18;;;;;;;35.00;4.70;;;9.20;99.90;;;;;;4840552;29;20054;-78
2021/12/01 03:54:45;;;;;;;31.45;5.28;;;9.20;99.90;;;;;;4826060;29;20053;-79
2021/12/01 03:57:12;;;;;;;34.85;4.63;;;9.20;99.90;;;;;;4842697;29;20117;-78
2021/12/01 03:59:38;;;;;;;28.58;4.28;;;9.20;99.90;;;;;;4823854;29;20087;-79
2021/12/01 04:02:04;;;;;;;34.83;4.50;;;9.20;99.90;;;;;;4817049;29;20045;-79
2021/12/01 04:04:30;;;;;;;34.75;4.30;;;9.20;99.90;;;;;;4831515;29;20041;-79
2021/12/01 04:06:56;;;;;;;35.23;4.57;;;9.20;99.90;;;;;;4809216;29;20046;-78
2021/12/01 04:09:22;;;;;;;39.10;4.50;;;9.20;99.90;;;;;;4825587;29;20046;-78
2021/12/01 04:11:48;;;;;;;33.58;4.63;;;9.20;99.90;;;;;;4824484;29;20863;-78
2021/12/01 04:14:14;;;;;;;32.77;4.77;;;9.10;99.90;;;;;;4825430;29;20140;-78
2021/12/01 04:16:40;;;;;;;29.53;4.07;;;9.20;99.90;;;;;;4812309;29;20056;-78
2021/12/01 04:19:06;;;;;;;25.97;4.20;;;9.10;99.90;;;;;;4825555;29;20049;-78
2021/12/01 04:21:32;;;;;;;40.83;4.93;;;9.10;99.90;;;;;;4824781;29;20057;-78
2021/12/01 04:23:58;;;;;;;29.05;4.63;;;9.10;99.90;;;;;;4838854;29;20120;-78
2021/12/01 04:26:26;;;;;;;29.45;3.58;;;9.10;99.90;;;;;;4841227;29;20385;-77
2021/12/01 04:28:54;;;;;;;37.30;4.32;;;9.10;99.90;;;;;;4802535;29;20408;-78
2021/12/01 04:31:21;;;;;;;29.67;4.22;;;9.00;99.90;;;;;;4839067;29;20045;-78
2021/12/01 04:33:48;;;;;;;23.77;3.65;;;9.10;99.90;;;;;;4809933;29;20045;-78
2021/12/01 04:36:16;;;;;;;26.75;3.63;;;9.10;99.90;;;;;;4839575;29;20050;-77
2021/12/01 04:38:42;;;;;;;16.13;2.88;;;9.10;99.90;;;;;;4838294;29;20046;-77
2021/12/01 04:41:09;;;;;;;14.23;3.10;;;9.10;99.90;;;;;;4792643;29;20052;-77
2021/12/01 04:43:37;;;;;;;15.32;3.10;;;9.10;99.90;;;;;;4825476;29;20101;-77
2021/12/01 04:46:03;;;;;;;18.52;2.90;;;9.10;99.90;;;;;;4841065;29;20136;-77
2021/12/01 04:48:30;;;;;;;11.23;3.45;;;9.10;99.90;;;;;;4841412;29;20049;-78
2021/12/01 04:50:56;;;;;;;9.57;2.90;;;9.10;99.90;;;;;;4827256;29;20049;-78
2021/12/01 04:53:24;;;;;;;10.07;3.58;;;9.10;99.90;;;;;;4840549;29;20500;-77
2021/12/01 04:55:50;;;;;;;8.05;3.28;;;9.00;99.90;;;;;;4826000;29;20132;-78
2021/12/01 04:58:16;;;;;;;6.47;2.23;;;9.00;99.90;;;;;;4826756;29;20136;-78
2021/12/01 05:00:41;;;;;;;5.07;2.33;;;8.90;99.90;;;;;;4857971;29;20093;-78
2021/12/01 05:03:07;;;;;;;4.00;2.77;;;8.80;99.90;;;;;;4824615;29;20045;-77
2021/12/01 05:05:33;;;;;;;7.67;4.07;;;8.80;99.90;;;;;;4841162;29;20546;-77
2021/12/01 05:07:59;;;;;;;7.37;4.10;;;8.70;99.90;;;;;;4825359;29;20560;-78
2021/12/01 05:10:24;;;;;;;5.37;3.97;;;8.70;99.90;;;;;;4826632;29;20068;-77
2021/12/01 05:12:50;;;;;;;6.93;4.60;;;8.70;99.90;;;;;;4824779;29;20037;-77
2021/12/01 05:15:16;;;;;;;6.87;4.20;;;8.70;99.90;;;;;;4825410;29;20136;-77
2021/12/01 05:17:42;;;;;;;5.20;3.80;;;8.60;99.90;;;;;;4843118;29;20041;-77
2021/12/01 05:20:11;;;;;;;6.53;3.70;;;8.60;99.90;;;;;;4841099;29;20053;-77
2021/12/01 05:22:38;;;;;;;5.53;2.70;;;8.60;99.90;;;;;;4822825;29;20114;-77
2021/12/01 05:25:05;;;;;;;5.63;2.90;;;8.60;99.90;;;;;;4830573;29;20613;-78
2021/12/01 05:27:32;;;;;;;4.20;3.00;;;8.60;99.90;;;;;;4824607;29;20049;-77
2021/12/01 05:29:58;;;;;;;4.15;2.53;;;8.60;99.90;;;;;;4807342;29;20038;-77
2021/12/01 05:32:24;;;;;;;5.40;2.97;;;8.60;99.90;;;;;;4819966;29;20045;-77
2021/12/01 05:34:50;;;;;;;4.85;2.80;;;8.60;99.90;;;;;;4824557;29;20056;-77
2021/12/01 05:37:16;;;;;;;6.30;3.70;;;8.60;99.90;;;;;;4824685;29;20049;-77
2021/12/01 05:39:45;;;;;;;7.10;3.70;;;8.50;99.90;;;;;;4824805;29;20084;-77
2021/12/01 05:42:12;;;;;;;4.47;3.08;;;8.50;99.90;;;;;;4839568;29;20085;-77
2021/12/01 05:44:39;;;;;;;4.72;3.05;;;8.50;99.90;;;;;;4839860;29;20041;-77
2021/12/01 05:47:05;;;;;;;4.72;3.20;;;8.50;99.90;;;;;;4839514;29;20049;-77
2021/12/01 05:49:32;;;;;;;5.10;2.92;;;8.40;99.90;;;;;;4823891;29;20041;-77
2021/12/01 05:51:58;;;;;;;6.20;3.60;;;8.40;99.90;;;;;;4808066;29;20045;-77
2021/12/01 05:54:25;;;;;;;5.80;3.63;;;8.40;99.90;;;;;;4839266;29;20420;-77
2021/12/01 05:56:51;;;;;;;8.80;3.95;;;8.40;99.90;;;;;;4839026;29;20115;-77
2021/12/01 05:59:17;;;;;;;6.60;4.10;;;8.30;99.90;;;;;;4822016;29;20111;-77
2021/12/01 06:01:42;;;;;;;9.13;5.00;;;8.30;99.90;;;;;;4824596;29;20136;-77
2021/12/01 06:04:08;;;;;;;7.23;5.30;;;8.30;99.90;;;;;;4823910;29;20380;-77
2021/12/01 06:06:34;;;;;;;7.60;4.70;;;8.30;99.90;;;;;;4808137;29;20046;-77
2021/12/01 06:09:00;;;;;;;7.63;5.30;;;8.30;99.90;;;;;;4823902;29;20048;-77
2021/12/01 06:11:25;;;;;;;9.70;5.30;;;8.30;99.90;;;;;;4807259;29;20042;-77
2021/12/01 06:13:53;;;;;;;12.17;6.23;;;8.30;99.90;;;;;;4806451;29;20077;-77
2021/12/01 06:16:23;;;;;;;8.50;5.18;;;8.30;99.90;;;;;;4814588;29;20047;-77
2021/12/01 06:18:49;;;;;;;6.63;4.13;;;8.30;99.90;;;;;;4839012;29;20079;-77
2021/12/01 06:21:16;;;;;;;7.50;4.32;;;8.30;99.90;;;;;;4838846;29;20105;-76
2021/12/01 06:23:42;;;;;;;7.15;4.72;;;8.30;99.90;;;;;;4837888;29;20132;-77
2021/12/01 06:26:08;;;;;;;7.93;5.20;;;8.30;99.90;;;;;;4838683;29;20138;-77
2021/12/01 06:28:34;;;;;;;10.35;5.88;;;8.30;99.90;;;;;;4838488;29;20046;-77
2021/12/01 06:31:00;;;;;;;10.60;6.13;;;8.20;99.90;;;;;;4822632;29;20417;-77
2021/12/01 06:33:26;;;;;;;7.80;5.30;;;8.30;99.90;;;;;;4807202;29;20335;-76
2021/12/01 06:35:52;;;;;;;8.30;5.00;;;8.20;99.90;;;;;;4822796;29;20052;-77
2021/12/01 06:38:19;;;;;;;6.87;4.60;;;8.20;99.90;;;;;;4821944;29;20049;-76
2021/12/01 06:40:47;;;;;;;6.60;4.18;;;8.20;99.90;;;;;;4838843;29;20052;-76
2021/12/01 06:43:13;;;;;;;9.43;4.88;;;8.20;99.90;;;;;;4826704;29;20037;-77
2021/12/01 06:45:39;;;;;;;10.17;5.30;;;8.20;99.90;;;;;;4838304;29;20044;-76
2021/12/01 06:48:06;;;;;;;8.52;5.75;;;8.20;99.90;;;;;;4838266;29;20045;-76
2021/12/01 06:50:32;;;;;;;12.10;6.50;;;8.20;99.90;;;;;;4838257;29;20444;-76
2021/12/01 06:52:58;;;;;;;12.05;7.25;;;8.20;99.90;;;;;;4822476;29;20416;-76
2021/12/01 06:55:23;;;;;;;12.23;7.00;;;8.20;99.90;;;;;;4807672;29;20041;-76
2021/12/01 06:57:49;;;;;;;13.33;7.13;;;8.20;99.90;;;;;;4835037;29;20080;-77
2021/12/01 07:00:17;;;;;;;11.82;6.28;;;8.20;99.90;;;;;;4837084;29;20054;-76
2021/12/01 07:02:42;;;;;;;10.75;5.75;;;8.30;99.90;;;;;;4841061;29;20060;-76
2021/12/01 07:05:09;;;;;;;10.33;6.63;;;8.30;99.90;;;;;;4820708;29;20433;-76
2021/12/01 07:07:35;;;;;;;13.02;7.55;;;8.30;99.90;;;;;;4822795;29;20117;-76
2021/12/01 07:10:03;;;;;;;15.10;8.27;;;8.30;99.90;;;;;;4819104;29;20497;-77
2021/12/01 07:12:28;;;;;;;13.23;7.53;;;8.30;99.90;;;;;;4818846;29;20309;-76
2021/12/01 07:14:54;;;;;;;15.70;7.90;;;8.30;99.90;;;;;;4790164;29;20521;-77
2021/12/01 07:17:20;;;;;;;12.23;7.43;;;8.30;99.90;;;;;;4818862;29;20045;-76
2021/12/01 07:19:48;;;;;;;15.45;6.68;;;8.30;99.90;;;;;;4837262;29;20120;-77
2021/12/01 07:22:14;;;;;;;15.55;6.57;;;8.30;99.90;;;;;;4835315;29;20057;-77
2021/12/01 07:24:40;;;;;;;13.07;6.60;;;8.30;99.90;;;;;;4830845;29;20037;-77
2021/12/01 07:27:06;;;;;;;20.77;7.10;;;8.30;99.90;;;;;;4823456;29;20045;-76
2021/12/01 07:29:32;;;;;;;13.52;6.03;;;8.30;99.90;;;;;;4819923;29;20046;-77
2021/12/01 07:31:57;;;;;;;14.27;6.30;;;8.40;99.90;;;;;;4820012;29;20417;-77
2021/12/01 07:34:23;;;;;;;14.93;5.57;;;8.30;99.90;;;;;;4801226;29;20172;-77
2021/12/01 07:36:49;;;;;;;15.37;6.23;;;8.30;99.90;;;;;;4815884;29;20058;-77
2021/12/01 07:39:15;;;;;;;18.50;5.30;;;8.30;99.90;;;;;;4835246;29;20416;-77
2021/12/01 07:41:40;;;;;;;11.97;4.73;;;8.40;99.90;;;;;;4803803;29;20045;-77
2021/12/01 07:44:06;;;;;;;12.03;4.50;;;8.40;99.90;;;;;;4822231;29;20198;-77
2021/12/01 07:46:32;;;;;;;19.87;4.03;;;8.40;99.90;;;;;;4819236;29;20056;-77
2021/12/01 07:48:58;;;;;;;15.13;3.07;;;8.40;99.90;;;;;;4819836;29;20038;-77
2021/12/01 07:51:23;;;;;;;13.10;3.10;;;8.40;99.90;;;;;;4805131;29;20042;-77
2021/12/01 07:53:49;;;;;;;14.50;3.53;;;8.40;99.90;;;;;;4818573;29;20569;-77
2021/12/01 07:56:15;;;;;;;17.60;3.10;;;8.50;99.90;;;;;;4820735;29;20129;-78
2021/12/01 07:58:41;;;;;;;16.97;3.03;;;8.50;99.90;;;;;;4821402;29;20057;-78
2021/12/01 08:01:07;;;;;;;12.87;1.97;;;8.60;99.90;;;;;;4807512;29;20293;-78
2021/12/01 08:03:32;;;;;;;17.33;2.23;;;8.60;99.90;;;;;;4814786;29;20144;-77
2021/12/01 08:05:58;;;;;;;17.20;2.03;;;8.40;99.90;;;;;;4812658;29;20053;-77
2021/12/01 08:08:24;;;;;;;13.50;1.80;;;8.40;99.90;;;;;;4820902;29;20054;-77
2021/12/01 08:10:50;;;;;;;17.50;2.27;;;8.30;99.90;;;;;;4833593;29;20046;-76
2021/12/01 08:13:15;;;;;;;18.37;2.73;;;8.30;99.90;;;;;;4817933;29;20065;-76
2021/12/01 08:15:41;;;;;;;19.27;2.90;;;8.20;99.90;;;;;;4803595;29;20056;-76
2021/12/01 08:18:07;;;;;;;14.57;2.07;;;8.20;99.90;;;;;;4806170;29;20101;-77
2021/12/01 08:20:36;;;;;;;14.45;2.78;;;8.10;99.90;;;;;;4805312;29;20166;-77
2021/12/01 08:23:02;;;;;;;20.80;2.78;;;8.10;99.90;;;;;;4834026;29;20514;-76
2021/12/01 08:25:28;;;;;;;12.53;2.47;;;8.00;99.90;;;;;;4835590;29;20042;-75
2021/12/01 08:27:54;;;;;;;12.90;2.33;;;8.10;99.90;;;;;;4831696;29;20060;-76
2021/12/01 08:30:19;;;;;;;9.90;1.80;;;8.10;99.90;;;;;;4810319;29;20078;-76
2021/12/01 08:32:45;;;;;;;13.30;2.27;;;8.10;99.90;;;;;;4821654;29;20033;-78
2021/12/01 08:35:13;;;;;;;12.45;5.60;;;8.10;99.90;;;;;;4834907;29;20049;-76
2021/12/01 08:37:39;;;;;;;15.20;7.85;;;8.10;99.90;;;;;;4835384;29;20054;-76
2021/12/01 08:40:05;;;;;;;17.80;4.30;;;8.10;99.90;;;;;;4837626;29;20046;-76
2021/12/01 08:42:33;;;;;;;19.88;4.03;;;8.20;99.90;;;;;;4818024;29;20360;-77
2021/12/01 08:44:59;;;;;;;11.43;2.35;;;8.30;99.90;;;;;;4836929;29;20499;-76
2021/12/01 08:47:25;;;;;;;11.63;2.30;;;8.30;99.90;;;;;;4821964;29;20085;-76
2021/12/01 08:49:52;;;;;;;19.53;2.60;;;8.30;99.90;;;;;;4806936;29;20129;-76
2021/12/01 08:52:18;;;;;;;15.90;1.98;;;8.30;99.90;;;;;;4820384;29;20050;-76
2021/12/01 08:54:44;;;;;;;11.73;2.00;;;8.30;99.90;;;;;;4812656;29;20049;-77
2021/12/01 08:57:11;;;;;;;16.30;1.80;;;8.20;99.90;;;;;;4836379;29;20081;-76
2021/12/01 08:59:37;;;;;;;12.07;2.33;;;8.20;99.90;;;;;;4837229;29;20050;-77
2021/12/01 09:02:03;;;;;;;17.67;2.33;;;8.20;99.90;;;;;;4821237;29;20106;-77
2021/12/01 09:04:30;;;;;;;11.48;2.03;;;8.10;99.90;;;;;;4805614;29;20050;-77
2021/12/01 09:06:56;;;;;;;13.02;1.60;;;8.10;99.90;;;;;;4821065;29;20057;-76
2021/12/01 09:09:21;;;;;;;12.27;1.30;;;8.20;99.90;;;;;;4810394;29;20065;-77
2021/12/01 09:11:49;;;;;;;13.00;1.40;;;8.10;99.90;;;;;;4836585;29;20509;-76
2021/12/01 09:14:16;;;;;;;10.60;1.45;;;8.10;99.90;;;;;;4817306;29;20053;-77
2021/12/01 09:16:43;;;;;;;11.20;1.52;;;8.10;99.90;;;;;;4826572;29;20041;-77
2021/12/01 09:19:09;;;;;;;12.25;2.00;;;8.10;99.90;;;;;;4822375;29;20382;-77
2021/12/01 09:21:36;;;;;;;17.20;2.50;;;8.10;99.90;;;;;;4820854;29;20057;-78
2021/12/01 09:24:03;;;;;;;20.00;2.30;;;8.10;99.90;;;;;;4836614;29;20046;-78
2021/12/01 09:26:30;;;;;;;12.60;1.75;;;8.10;99.90;;;;;;4820906;29;20101;-78
2021/12/01 09:28:55;;;;;;;14.73;2.15;;;8.00;99.90;;;;;;4817447;29;20048;-77
2021/12/01 09:31:21;;;;;;;18.60;2.30;;;8.00;99.90;;;;;;4838418;29;20049;-77
2021/12/01 09:33:47;;;;;;;17.33;2.80;;;8.10;99.90;;;;;;4826427;29;20041;-77
2021/12/01 09:36:13;;;;;;;15.53;2.20;;;8.10;99.90;;;;;;4838170;29;20351;-76
2021/12/01 09:38:40;;;;;;;21.33;2.50;;;8.10;99.90;;;;;;4836517;29;20046;-77
2021/12/01 09:41:06;;;;;;;20.27;2.22;;;8.10;99.90;;;;;;4833983;29;20046;-76
2021/12/01 09:43:32;;;;;;;19.05;2.97;;;8.10;99.90;;;;;;4832546;29;20057;-76
2021/12/01 09:46:00;;;;;;;143.43;7.37;;;8.10;99.90;;;;;;4802013;29;20049;-77
2021/12/01 09:48:27;;;;;;;26.35;4.22;;;8.20;99.90;;;;;;4829637;29;20057;-77
2021/12/01 09:50:53;;;;;;;24.25;3.22;;;8.30;99.90;;;;;;4803156;29;20041;-76
2021/12/01 09:53:19;;;;;;;266.47;13.67;;;8.30;99.90;;;;;;4833171;29;20110;-77
2021/12/01 09:55:45;;;;;;;29.90;4.78;;;8.40;99.90;;;;;;4835371;29;20505;-77
2021/12/01 09:58:20;;;;;;;25.77;3.50;;;8.40;99.90;;;;;;4797792;29;20137;-77
2021/12/01 10:00:53;;;;;;;20.15;2.42;;;8.30;99.90;;;;;;4839154;29;20447;-77
2021/12/01 10:03:19;;;;;;;29.42;3.22;;;8.30;99.90;;;;;;4838747;29;20045;-77
2021/12/01 10:06:03;;;;;;;21.13;3.25;;;8.20;99.90;;;;;;4834896;29;20046;-77
2021/12/01 10:08:35;;;;;;;250.25;9.95;;;8.20;99.90;;;;;;4835766;29;20063;-77
2021/12/01 10:11:17;;;;;;;237.18;11.60;;;8.20;99.90;;;;;;4822084;29;20046;-78
2021/12/01 10:13:55;;;;;;;38.40;3.47;;;8.10;99.90;;;;;;4820903;29;20104;-79
2021/12/01 10:16:27;;;;;;;16.08;2.30;;;8.10;99.90;;;;;;4842245;29;20060;-77
2021/12/01 10:18:56;;;;;;;17.33;2.03;;;8.00;99.90;;;;;;4836297;29;20042;-77
2021/12/01 10:21:31;;;;;;;18.13;3.40;;;8.00;99.90;;;;;;4836237;29;20050;-77
2021/12/01 10:24:08;;;;;;;18.42;2.53;;;8.00;99.90;;;;;;4820171;29;20060;-77
2021/12/01 10:26:49;;;;;;;141.25;10.73;;;8.00;99.90;;;;;;4821429;29;20061;-79
2021/12/01 10:29:17;;;;;;;7.40;1.00;;;7.90;99.90;;;;;;4836088;29;20045;-75
2021/12/01 10:31:56;;;;;;;13.98;1.55;;;7.80;99.90;;;;;;4820637;29;20413;-76
2021/12/01 10:34:35;;;;;;;6.18;0.80;;;7.80;99.90;;;;;;4834491;29;20100;-75
2021/12/01 10:37:28;;;;;;;48.13;3.13;;;7.80;99.90;;;;;;4819815;29;20045;-76
2021/12/01 10:40:16;;;;;;;17.42;2.78;;;7.80;99.90;;;;;;4820139;29;20056;-75
2021/12/01 10:43:08;;;;;;;59.75;4.28;;;7.80;99.90;;;;;;4834690;29;20129;-76
2021/12/01 10:45:47;;;;;;;22.83;2.97;;;8.00;99.90;;;;;;4812811;29;20473;-75
2021/12/01 10:48:23;;;;;;;17.05;2.40;;;8.00;99.90;;;;;;4815383;29;20052;-75
2021/12/01 10:50:49;;;;;;;13.40;1.80;;;7.90;99.90;;;;;;4835930;29;20413;-76
2021/12/01 10:53:19;;;;;;;13.40;1.50;;;7.90;99.90;;;;;;4820346;29;20401;-75
2021/12/01 10:55:50;;;;;;;18.27;2.50;;;7.90;99.90;;;;;;4819662;29;20129;-75
2021/12/01 10:58:16;;;;;;;20.52;2.03;;;7.90;99.90;;;;;;4819311;29;20417;-75
2021/12/01 11:00:53;;;;;;;19.10;1.75;;;7.90;99.90;;;;;;4835543;29;20408;-75
2021/12/01 11:03:24;;;;;;;19.35;2.88;;;7.90;99.90;;;;;;4819947;29;20619;-75
2021/12/01 11:05:52;;;;;;;20.90;2.90;;;7.90;99.90;;;;;;4819346;29;20402;-75
2021/12/01 11:08:22;;;;;;;18.13;2.58;;;7.90;99.90;;;;;;4819419;29;20164;-76
2021/12/01 11:11:12;;;;;;;25.50;3.13;;;7.90;99.90;;;;;;4834518;29;20394;-75
2021/12/01 11:13:42;;;;;;;20.05;2.80;;;8.00;99.90;;;;;;4837769;29;20080;-76
2021/12/01 11:16:10;;;;;;;29.60;3.08;;;8.10;99.90;;;;;;4833236;29;20069;-75
2021/12/01 11:18:43;;;;;;;28.08;4.47;;;8.10;99.90;;;;;;4818766;29;20034;-75
2021/12/01 11:21:14;;;;;;;22.30;3.53;;;8.20;99.90;;;;;;4812202;29;20045;-75
2021/12/01 11:23:46;;;;;;;24.10;3.85;;;8.20;99.90;;;;;;4833618;29;20048;-75
2021/12/01 11:26:17;;;;;;;23.42;3.38;;;8.30;99.90;;;;;;4817110;29;20044;-75
2021/12/01 11:29:02;;;;;;;26.65;4.07;;;8.30;99.90;;;;;;4818880;29;20053;-75
2021/12/01 11:31:45;;;;;;;33.72;5.13;;;8.30;99.90;;;;;;4832123;29;20038;-75
2021/12/01 11:34:17;;;;;;;27.95;4.80;;;8.20;99.90;;;;;;4832835;29;20048;-75
2021/12/01 11:36:46;;;;;;;22.90;2.83;;;8.30;99.90;;;;;;4817841;29;20489;-75
2021/12/01 11:39:19;;;;;;;21.88;3.20;;;8.30;99.90;;;;;;4831521;29;20139;-75
2021/12/01 11:41:46;;;;;;;24.60;3.22;;;8.20;99.90;;;;;;4815162;29;20053;-75
2021/12/01 11:44:14;;;;;;;25.65;4.25;;;8.20;99.90;;;;;;4819072;29;20458;-75
2021/12/01 11:46:40;;;;;;;21.75;3.20;;;8.10;99.90;;;;;;4832793;29;20046;-75
2021/12/01 11:49:17;;;;;;;21.55;3.13;;;8.00;99.90;;;;;;4833143;29;20049;-75
2021/12/01 11:51:55;;;;;;;23.10;3.22;;;8.00;99.90;;;;;;4832872;29;20038;-74
2021/12/01 11:54:23;;;;;;;27.63;3.53;;;8.00;99.90;;;;;;4830278;29;20140;-74
2021/12/01 11:57:08;;;;;;;20.80;3.92;;;7.90;99.90;;;;;;4834162;29;20085;-74
2021/12/01 11:59:38;;;;;;;22.42;3.72;;;7.90;99.90;;;;;;4836621;29;20156;-74
2021/12/01 12:02:15;;;;;;;19.08;2.58;;;7.80;99.90;;;;;;4842014;29;20057;-74
2021/12/01 12:04:43;;;;;;;23.15;4.28;;;7.80;99.90;;;;;;4825608;29;20041;-74
2021/12/01 12:07:12;;;;;;;21.30;2.72;;;7.80;99.90;;;;;;4822603;29;20120;-74
2021/12/01 12:09:38;;;;;;;16.70;2.10;;;7.80;99.90;;;;;;4836429;29;20116;-74
2021/12/01 12:12:11;;;;;;;17.17;2.28;;;7.80;99.90;;;;;;4837332;29;20064;-74
2021/12/01 12:14:45;;;;;;;20.00;2.88;;;7.80;99.90;;;;;;4841261;29;20056;-74
2021/12/01 12:17:16;;;;;;;15.40;2.65;;;7.80;99.90;;;;;;4836204;29;20041;-74
2021/12/01 12:19:58;;;;;;;12.25;2.10;;;7.80;99.90;;;;;;4839251;29;20052;-74
2021/12/01 12:22:39;;;;;;;16.15;1.77;;;7.80;99.90;;;;;;4841805;29;20065;-74
2021/12/01 12:25:08;;;;;;;13.45;1.33;;;7.80;99.90;;;;;;4838008;29;20041;-74
2021/12/01 12:27:47;;;;;;;14.00;1.60;;;7.80;99.90;;;;;;4827455;29;20164;-74
2021/12/01 12:30:35;;;;;;;17.60;2.08;;;7.80;99.90;;;;;;4839847;29;20069;-74
2021/12/01 12:33:16;;;;;;;15.02;2.05;;;7.70;99.90;;;;;;4841783;29;20476;-74
2021/12/01 12:35:49;;;;;;;13.98;2.85;;;7.60;99.90;;;;;;4841215;29;20073;-75
2021/12/01 12:38:16;;;;;;;13.70;2.05;;;7.60;99.90;;;;;;4842484;29;20141;-74
2021/12/01 12:40:43;;;;;;;16.30;2.50;;;7.60;99.90;;;;;;4839615;29;20056;-76
2021/12/01 12:43:11;;;;;;;14.95;2.28;;;7.50;99.90;;;;;;4834073;29;20049;-74
2021/12/01 12:45:41;;;;;;;16.45;2.38;;;7.50;99.90;;;;;;4835593;29;20042;-73
2021/12/01 12:48:28;;;;;;;14.25;3.05;;;7.40;99.90;;;;;;4820681;29;20412;-73
2021/12/01 12:51:29;;;;;;;16.15;3.03;;;7.40;99.90;;;;;;4833790;29;20053;-73
2021/12/01 12:54:01;;;;;;;15.80;2.58;;;7.40;99.90;;;;;;4841018;29;20045;-73
2021/12/01 12:56:30;;;;;;;17.48;2.15;;;7.30;99.90;;;;;;4834277;29;20136;-74
2021/12/01 12:59:23;;;;;;;28.63;2.33;;;7.30;99.90;;;;;;4832807;29;20532;-74
2021/12/01 13:01:55;;;;;;;10.75;1.60;;;7.30;99.90;;;;;;4830797;29;20078;-74